Time;durP1;ratioP1;P1;durP2;ratioP2;P2;SDS_P1;SDS_P2;PMS_P1;PMS_P2;Temp;Humidity;BMP_temperature;BMP_pressure;BME280_temperature;BME280_humidity;BME280_pressure;Samples;Min_cycle;Max_cycle;Signal;HPM_P1;HPM_P2
2021/09/15 00:02:10;;;;;;;9.10;5.57;;;;;;;18.52;53.98;101493.84;6154008;23;20661;-63
2021/09/15 00:04:36;;;;;;;10.53;5.60;;;;;;;18.51;54.05;101502.72;6153162;23;20190;-63
2021/09/15 00:07:01;;;;;;;15.53;5.80;;;;;;;18.51;54.29;101500.72;6154161;23;20181;-63
2021/09/15 00:09:27;;;;;;;9.70;5.50;;;;;;;18.54;54.25;101501.81;6154651;23;20156;-63
2021/09/15 00:11:54;;;;;;;5.30;4.80;;;;;;;18.44;54.29;101497.44;6154552;23;20152;-63
2021/09/15 00:14:20;;;;;;;6.90;5.33;;;;;;;18.26;53.78;101477.75;6154170;23;20215;-64
2021/09/15 00:16:45;;;;;;;7.90;5.37;;;;;;;18.36;54.23;101501.78;6152443;23;20426;-63
2021/09/15 00:19:11;;;;;;;10.27;5.63;;;;;;;17.81;54.41;101444.72;6152857;23;20197;-63
2021/09/15 00:21:37;;;;;;;9.47;5.60;;;;;;;18.16;54.50;101504.22;6154102;23;20159;-63
2021/09/15 00:24:03;;;;;;;10.53;6.00;;;;;;;18.07;54.42;101502.13;6154500;23;20160;-63
2021/09/15 00:26:28;;;;;;;11.43;5.70;;;;;;;18.07;54.67;101504.94;6153596;23;20201;-63
2021/09/15 00:28:54;;;;;;;9.50;5.23;;;;;;;18.08;54.64;101504.47;6154105;23;20166;-63
2021/09/15 00:31:19;;;;;;;8.37;5.20;;;;;;;17.94;54.75;101488.22;6154439;23;20177;-64
2021/09/15 00:33:45;;;;;;;9.63;5.50;;;;;;;18.02;54.46;101504.78;6154315;23;20216;-63
2021/09/15 00:36:10;;;;;;;6.97;5.30;;;;;;;18.03;54.29;101502.28;6154454;23;20157;-63
2021/09/15 00:38:36;;;;;;;9.67;5.53;;;;;;;18.03;54.78;101504.31;6153922;23;20215;-63
2021/09/15 00:41:01;;;;;;;6.03;5.30;;;;;;;18.04;54.48;101498.22;6154113;23;20508;-63
2021/09/15 00:43:27;;;;;;;7.20;5.10;;;;;;;17.91;54.79;101491.16;6153938;23;20611;-63
2021/09/15 00:45:52;;;;;;;6.83;5.23;;;;;;;17.66;54.65;101445.75;6128153;23;20564;-63
2021/09/15 00:48:18;;;;;;;10.60;5.73;;;;;;;17.95;54.37;101500.22;6153553;23;20214;-63
2021/09/15 00:50:43;;;;;;;12.03;5.57;;;;;;;18.01;54.27;101508.84;6154174;23;20157;-64
2021/09/15 00:53:09;;;;;;;11.97;5.50;;;;;;;17.92;54.42;101497.56;6154134;23;20625;-63
2021/09/15 00:55:35;;;;;;;9.40;5.23;;;;;;;17.97;54.35;101508.94;6154170;23;20157;-63
2021/09/15 00:58:00;;;;;;;9.97;5.77;;;;;;;17.95;54.41;101505.84;6154147;23;20149;-63
2021/09/15 01:00:26;;;;;;;10.50;5.80;;;;;;;17.70;54.46;101478.00;6153782;23;20153;-63
2021/09/15 01:02:52;;;;;;;8.37;5.47;;;;;;;17.96;54.29;101509.44;6152203;23;20193;-63
2021/09/15 01:05:18;;;;;;;8.67;5.10;;;;;;;17.77;54.30;101488.16;6154376;23;20157;-63
2021/09/15 01:07:43;;;;;;;9.07;5.37;;;;;;;17.81;54.15;101480.41;6153446;23;20184;-63
2021/09/15 01:10:09;;;;;;;7.33;5.10;;;;;;;17.84;54.29;101494.28;6154155;23;20164;-63
2021/09/15 01:12:37;;;;;;;10.53;5.63;;;;;;;17.05;54.00;101359.69;6153323;23;20155;-64
2021/09/15 01:15:03;;;;;;;7.00;4.73;;;;;;;17.81;54.31;101475.56;6153861;23;20240;-63
2021/09/15 01:17:29;;;;;;;6.93;4.73;;;;;;;17.94;54.24;101496.63;6151636;23;20237;-64
2021/09/15 01:19:54;;;;;;;8.20;4.97;;;;;;;17.82;54.43;101479.94;6154037;23;20173;-63
2021/09/15 01:22:20;;;;;;;7.77;5.17;;;;;;;17.95;54.13;101505.84;6153408;23;20235;-63
2021/09/15 01:24:48;;;;;;;13.00;5.83;;;;;;;17.82;54.32;101487.56;6153719;23;20158;-63
2021/09/15 01:27:13;;;;;;;5.80;4.97;;;;;;;17.48;54.23;101448.47;6153069;23;20225;-63
2021/09/15 01:29:39;;;;;;;8.20;5.10;;;;;;;17.81;54.38;101506.41;6153758;23;20160;-62
2021/09/15 01:32:08;;;;;;;7.67;4.80;;;;;;;17.64;54.64;101510.69;6153657;23;20532;-62
2021/09/15 01:34:37;;;;;;;7.30;5.07;;;;;;;17.25;55.46;101477.72;6153653;23;20502;-63
2021/09/15 01:37:04;;;;;;;7.13;5.40;;;;;;;17.11;55.45;101453.06;6153497;23;20146;-63
2021/09/15 01:39:30;;;;;;;6.53;4.87;;;;;;;17.10;55.20;101468.28;6152138;23;20521;-63
2021/09/15 01:42:01;;;;;;;6.40;4.90;;;;;;;17.40;55.52;101520.81;6153506;23;20232;-63
2021/09/15 01:44:38;;;;;;;10.27;5.77;;;;;;;17.28;55.61;101511.25;6153251;23;20185;-63
2021/09/15 01:47:05;;;;;;;9.67;5.60;;;;;;;17.25;55.82;101526.16;6153022;23;20664;-63
2021/09/15 01:49:32;;;;;;;6.83;5.20;;;;;;;16.99;56.18;101490.31;6153502;23;20548;-63
2021/09/15 01:51:59;;;;;;;8.13;5.00;;;;;;;17.15;56.15;101516.13;6153572;23;20600;-64
2021/09/15 01:54:25;;;;;;;6.97;5.47;;;;;;;17.22;56.09;101520.69;6153176;23;20250;-63
2021/09/15 01:56:52;;;;;;;8.00;5.07;;;;;;;17.21;56.42;101519.13;6153791;23;20619;-64
2021/09/15 01:59:17;;;;;;;7.00;4.97;;;;;;;17.14;56.40;101508.94;6153670;23;20226;-63
2021/09/15 02:01:43;;;;;;;6.47;4.97;;;;;;;17.12;56.45;101516.25;6153366;23;20158;-63
2021/09/15 02:04:08;;;;;;;6.37;4.63;;;;;;;16.92;56.54;101480.16;6153233;23;20150;-63
2021/09/15 02:06:35;;;;;;;7.27;5.30;;;;;;;17.22;56.12;101520.69;6153322;23;20179;-63
2021/09/15 02:09:01;;;;;;;6.83;5.30;;;;;;;17.21;56.57;101517.09;6153140;23;20155;-63
2021/09/15 02:11:27;;;;;;;10.17;5.63;;;;;;;16.79;56.65;101451.44;6153395;23;20612;-63
2021/09/15 02:13:53;;;;;;;13.07;6.00;;;;;;;16.94;56.59;101485.28;6152925;23;20157;-63
2021/09/15 02:16:18;;;;;;;16.00;6.50;;;;;;;16.90;56.38;101484.66;6153095;23;20184;-63
2021/09/15 02:18:44;;;;;;;13.50;6.17;;;;;;;16.67;56.74;101454.28;6152880;23;20157;-63
2021/09/15 02:21:09;;;;;;;13.90;5.80;;;;;;;17.12;56.81;101528.22;6127050;23;20239;-63
2021/09/15 02:23:35;;;;;;;11.63;6.10;;;;;;;17.12;57.16;101524.66;6152820;23;20162;-64
2021/09/15 02:26:00;;;;;;;13.80;6.00;;;;;;;16.86;57.16;101492.41;6153306;23;20186;-63
2021/09/15 02:28:26;;;;;;;12.33;5.80;;;;;;;16.80;57.20;101469.78;6152284;23;20194;-63
2021/09/15 02:30:51;;;;;;;12.80;5.73;;;;;;;17.06;57.52;101518.84;6153243;23;20167;-63
2021/09/15 02:33:17;;;;;;;14.23;5.97;;;;;;;16.98;57.68;101522.34;6153184;23;20156;-63
2021/09/15 02:35:42;;;;;;;13.67;6.30;;;;;;;16.70;57.56;101473.00;6151487;23;20164;-63
2021/09/15 02:38:08;;;;;;;14.83;5.90;;;;;;;16.95;57.34;101515.66;6153142;23;20150;-63
2021/09/15 02:40:33;;;;;;;9.67;5.80;;;;;;;16.83;57.39;101492.53;6153094;23;20151;-63
2021/09/15 02:42:59;;;;;;;12.83;6.00;;;;;;;17.05;57.75;101525.69;6152524;23;20150;-63
2021/09/15 02:45:25;;;;;;;9.93;5.73;;;;;;;17.14;57.34;101534.16;6153067;23;20208;-63
2021/09/15 02:47:50;;;;;;;10.43;6.70;;;;;;;17.16;57.63;101531.66;6152906;23;20189;-63
2021/09/15 02:50:16;;;;;;;27.43;7.60;;;;;;;17.02;57.00;101518.22;6152747;23;20504;-63
2021/09/15 02:52:41;;;;;;;23.07;7.53;;;;;;;16.87;57.00;101513.56;6152646;23;20156;-63
2021/09/15 02:55:07;;;;;;;19.07;6.67;;;;;;;16.71;57.28;101508.13;6152909;23;20164;-63
2021/09/15 02:57:33;;;;;;;14.77;6.57;;;;;;;16.98;57.84;101555.94;6152571;23;20232;-63
2021/09/15 02:59:58;;;;;;;14.43;6.73;;;;;;;16.85;58.00;101533.59;6152934;23;20153;-63
2021/09/15 03:02:24;;;;;;;20.07;7.07;;;;;;;16.96;57.78;101556.41;6150953;23;20157;-63
2021/09/15 03:04:49;;;;;;;18.97;6.40;;;;;;;16.83;57.74;101536.09;6152623;23;20153;-63
2021/09/15 03:07:15;;;;;;;16.10;6.87;;;;;;;16.99;58.10;101560.31;6152577;23;20580;-63
2021/09/15 03:09:41;;;;;;;16.40;6.03;;;;;;;16.96;58.09;101564.81;6152800;23;20683;-63
2021/09/15 03:12:07;;;;;;;15.40;5.77;;;;;;;16.95;57.74;101548.47;6152837;23;20153;-63
2021/09/15 03:14:32;;;;;;;18.97;6.10;;;;;;;17.05;57.79;101559.28;6151132;23;20165;-63
2021/09/15 03:16:57;;;;;;;23.13;7.27;;;;;;;16.94;57.69;101544.88;6152466;23;20148;-63
2021/09/15 03:19:23;;;;;;;20.43;6.97;;;;;;;16.97;57.43;101557.19;6152625;23;20197;-63
2021/09/15 03:21:49;;;;;;;16.60;6.40;;;;;;;16.86;57.52;101559.59;6152872;23;20224;-63
2021/09/15 03:24:14;;;;;;;11.93;5.80;;;;;;;16.83;57.91;101558.47;6151891;23;20371;-62
2021/09/15 03:26:40;;;;;;;11.53;6.67;;;;;;;16.88;58.12;101564.75;6151694;23;20280;-63
2021/09/15 03:29:05;;;;;;;16.30;6.93;;;;;;;16.90;57.83;101574.25;6151414;23;20488;-63
2021/09/15 03:31:31;;;;;;;17.17;7.20;;;;;;;16.78;58.25;101581.44;6126672;23;20239;-63
2021/09/15 03:33:56;;;;;;;13.30;6.47;;;;;;;16.76;58.19;101578.31;6152633;23;20149;-63
2021/09/15 03:36:22;;;;;;;8.93;5.83;;;;;;;16.73;58.02;101572.81;6152714;23;20156;-64
2021/09/15 03:38:48;;;;;;;12.67;6.30;;;;;;;16.79;58.08;101583.00;6152241;23;20210;-63
2021/09/15 03:41:14;;;;;;;9.60;5.90;;;;;;;16.81;57.99;101580.53;6152688;23;20153;-63
2021/09/15 03:43:39;;;;;;;12.53;6.30;;;;;;;16.83;58.03;101582.13;6152349;23;20189;-63
2021/09/15 03:46:05;;;;;;;11.20;5.57;;;;;;;16.83;57.97;101580.88;6152687;23;20155;-63
2021/09/15 03:48:30;;;;;;;7.53;5.57;;;;;;;16.86;58.08;101574.34;6151871;23;20201;-63
2021/09/15 03:50:56;;;;;;;12.33;5.50;;;;;;;16.84;57.96;101576.84;6126423;23;20160;-63
2021/09/15 03:53:21;;;;;;;15.03;5.97;;;;;;;16.81;57.63;101582.56;6152599;23;20212;-64
2021/09/15 03:55:47;;;;;;;15.67;5.47;;;;;;;16.77;56.94;101582.69;6152643;23;20164;-64
2021/09/15 03:58:13;;;;;;;6.87;5.20;;;;;;;16.60;57.35;101566.50;6152524;23;20600;-64
2021/09/15 04:00:38;;;;;;;8.03;5.07;;;;;;;16.63;57.44;101583.16;6152409;23;20164;-63
2021/09/15 04:03:04;;;;;;;10.23;5.83;;;;;;;16.47;57.96;101562.16;6151079;23;20216;-62
2021/09/15 04:05:29;;;;;;;9.13;5.47;;;;;;;16.63;57.95;101594.34;6152502;23;20237;-63
2021/09/15 04:07:55;;;;;;;10.23;5.87;;;;;;;16.23;57.98;101523.31;6152146;23;20175;-61
2021/09/15 04:10:20;;;;;;;10.23;6.40;;;;;;;16.55;58.33;101587.41;6152298;23;20187;-61
2021/09/15 04:12:46;;;;;;;11.20;6.33;;;;;;;16.38;58.23;101559.97;6152635;23;20228;-62
2021/09/15 04:15:11;;;;;;;15.00;8.10;;;;;;;16.58;58.13;101598.97;6152169;23;20196;-63
2021/09/15 04:17:37;;;;;;;18.33;6.97;;;;;;;16.49;58.37;101600.41;6152335;23;20153;-62
2021/09/15 04:20:05;;;;;;;17.30;7.20;;;;;;;16.49;58.30;101606.00;6152875;23;20153;-62
2021/09/15 04:22:30;;;;;;;12.27;6.73;;;;;;;16.33;58.10;101594.91;6150731;23;20158;-62
2021/09/15 04:32:58;;;;;;;10.10;6.10;;;;;;;16.68;60.46;101618.97;6144051;23;20148;-63
2021/09/15 04:35:25;;;;;;;12.80;6.90;;;;;;;16.66;58.26;101626.25;6150883;23;20610;-63
2021/09/15 04:37:50;;;;;;;12.83;6.63;;;;;;;16.79;60.81;101625.00;6152453;23;20150;-64
2021/09/15 04:40:16;;;;;;;13.80;6.43;;;;;;;16.80;59.26;101629.34;6153606;23;20159;-62
2021/09/15 04:42:41;;;;;;;10.47;7.50;;;;;;;16.71;58.39;101595.66;6152179;23;20468;-63
2021/09/15 04:45:07;;;;;;;9.77;6.57;;;;;;;17.33;58.42;101625.53;6152826;23;20161;-63
2021/09/15 04:47:33;;;;;;;13.77;9.10;;;;;;;17.72;56.27;101596.09;6150036;23;20181;-65
2021/09/15 04:49:59;;;;;;;13.67;8.10;;;;;;;18.56;53.48;101601.16;6148065;23;20155;-65
2021/09/15 04:52:25;;;;;;;15.57;9.43;;;;;;;19.11;52.21;101630.91;6151951;23;20396;-63
2021/09/15 04:54:51;;;;;;;19.50;8.40;;;;;;;18.77;53.28;101607.94;6151408;23;20153;-64
2021/09/15 04:57:16;;;;;;;22.23;8.07;;;;;;;19.48;52.12;101593.16;6142833;23;20157;-62
2021/09/15 04:59:42;;;;;;;21.30;8.23;;;;;;;20.42;52.14;101629.34;6145298;23;20161;-63
2021/09/15 05:02:07;;;;;;;21.10;8.23;;;;;;;20.68;50.69;101631.22;6149861;23;20235;-63
2021/09/15 05:04:33;;;;;;;17.90;7.93;;;;;;;20.95;49.30;101641.59;6148226;23;20168;-63
2021/09/15 05:06:58;;;;;;;20.27;7.30;;;;;;;21.20;48.20;101643.94;6131795;23;20211;-63
2021/09/15 05:09:24;;;;;;;17.13;8.27;;;;;;;21.39;47.14;101632.03;6142149;23;20305;-63
2021/09/15 05:11:49;;;;;;;22.20;9.60;;;;;;;21.56;46.84;101643.63;6137968;23;20165;-64
2021/09/15 05:14:15;;;;;;;23.40;8.33;;;;;;;21.75;46.15;101645.06;6138587;23;20153;-63
2021/09/15 05:16:40;;;;;;;20.40;8.60;;;;;;;21.88;45.51;101649.16;6142008;23;20208;-63
2021/09/15 05:19:06;;;;;;;21.83;7.90;;;;;;;21.61;46.29;101646.56;6144196;23;20157;-62
2021/09/15 05:21:31;;;;;;;22.90;8.10;;;;;;;21.36;46.20;101621.72;6148362;23;20287;-63
2021/09/15 05:23:57;;;;;;;15.13;6.57;;;;;;;21.78;44.87;101658.19;6147253;23;20213;-63
2021/09/15 05:26:22;;;;;;;13.00;5.90;;;;;;;21.42;44.47;101628.25;6146235;23;20201;-63
2021/09/15 05:28:48;;;;;;;18.27;6.57;;;;;;;21.57;45.45;101651.63;6130572;23;20204;-62
2021/09/15 05:31:13;;;;;;;23.03;7.30;;;;;;;21.62;45.39;101661.44;6147249;23;20225;-62
2021/09/15 05:33:39;;;;;;;21.27;7.33;;;;;;;21.77;45.31;101659.44;6143454;23;20568;-62
2021/09/15 05:36:04;;;;;;;19.37;8.00;;;;;;;21.85;45.14;101663.47;6145889;23;20158;-63
2021/09/15 05:38:30;;;;;;;16.90;7.30;;;;;;;21.71;45.17;101636.00;6144478;23;20573;-63
2021/09/15 05:40:55;;;;;;;13.67;7.17;;;;;;;21.78;44.73;101641.25;6145524;23;20158;-63
2021/09/15 05:43:21;;;;;;;16.73;7.43;;;;;;;21.94;44.62;101658.50;6146964;23;20154;-63
2021/09/15 05:45:47;;;;;;;16.27;8.07;;;;;;;22.12;44.17;101654.69;6142328;23;20161;-63
2021/09/15 05:48:12;;;;;;;16.77;8.63;;;;;;;22.23;43.67;101657.72;6145168;23;20169;-63
2021/09/15 05:50:39;;;;;;;17.50;7.73;;;;;;;22.27;43.41;101647.75;6146372;23;20189;-63
2021/09/15 05:53:04;;;;;;;16.90;7.87;;;;;;;22.33;43.12;101626.06;6144766;23;20154;-63
2021/09/15 05:55:30;;;;;;;13.40;7.23;;;;;;;22.38;43.24;101633.06;6144587;23;20510;-63
2021/09/15 05:57:55;;;;;;;15.83;7.60;;;;;;;22.55;43.13;101649.03;6142920;23;20157;-64
2021/09/15 06:00:21;;;;;;;14.33;7.17;;;;;;;22.45;43.46;101655.28;6145556;23;20227;-65
2021/09/15 06:02:46;;;;;;;13.57;7.10;;;;;;;22.57;43.23;101657.03;6147483;23;20559;-62
2021/09/15 06:05:11;;;;;;;16.00;6.73;;;;;;;22.74;43.02;101660.88;6140571;23;20660;-64
2021/09/15 06:07:37;;;;;;;16.33;6.70;;;;;;;22.56;43.39;101639.28;6147354;23;20640;-65
2021/09/15 06:10:03;;;;;;;17.50;6.60;;;;;;;22.69;44.38;101664.38;6144801;23;20196;-64
2021/09/15 06:12:28;;;;;;;13.60;6.70;;;;;;;22.56;44.49;101661.88;6143275;23;20185;-66
2021/09/15 06:14:54;;;;;;;16.80;7.00;;;;;;;22.83;44.17;101663.56;6120521;23;20157;-68
2021/09/15 06:17:19;;;;;;;13.50;6.27;;;;;;;22.90;44.33;101669.59;6147491;23;20157;-67
2021/09/15 06:19:45;;;;;;;12.20;6.60;;;;;;;22.57;44.26;101628.78;6148578;23;20212;-67
2021/09/15 06:22:10;;;;;;;14.53;6.83;;;;;;;22.87;44.05;101658.50;6147334;23;20158;-68
2021/09/15 06:24:36;;;;;;;14.13;5.90;;;;;;;22.83;44.60;101661.50;6147100;23;20524;-68
2021/09/15 06:27:01;;;;;;;15.53;7.10;;;;;;;22.75;44.63;101663.19;6147308;23;20205;-68
2021/09/15 06:29:27;;;;;;;15.43;6.60;;;;;;;22.79;44.36;101663.00;6148297;23;20173;-68
2021/09/15 06:31:52;;;;;;;9.93;6.53;;;;;;;22.81;44.67;101672.53;6146614;23;20593;-68
2021/09/15 06:34:18;;;;;;;15.10;6.17;;;;;;;22.53;45.03;101653.59;6148564;23;20440;-68
2021/09/15 06:36:44;;;;;;;16.40;7.07;;;;;;;22.77;45.28;101666.31;6144344;23;20558;-67
2021/09/15 06:39:09;;;;;;;11.60;6.20;;;;;;;22.70;44.15;101623.53;6147280;23;20217;-66
2021/09/15 06:41:35;;;;;;;11.57;6.73;;;;;;;22.99;44.83;101665.84;6147935;23;20232;-68
2021/09/15 06:44:02;;;;;;;8.37;5.90;;;;;;;23.12;44.15;101661.41;6142307;23;20157;-67
2021/09/15 06:46:27;;;;;;;10.30;7.37;;;;;;;23.33;44.40;101670.72;6145636;23;20186;-66
2021/09/15 06:48:53;;;;;;;10.53;6.70;;;;;;;23.30;44.88;101671.69;6146252;23;20477;-65
2021/09/15 06:51:18;;;;;;;11.83;6.87;;;;;;;23.34;45.38;101678.69;6145235;23;20194;-65
2021/09/15 06:53:44;;;;;;;11.13;6.53;;;;;;;23.20;44.66;101658.97;6146410;23;20176;-65
2021/09/15 06:56:10;;;;;;;11.20;6.77;;;;;;;23.20;45.00;101678.75;6146699;23;20604;-65
2021/09/15 06:58:36;;;;;;;10.90;6.40;;;;;;;23.23;44.93;101686.25;6118708;23;20165;-65
2021/09/15 07:01:01;;;;;;;11.20;6.80;;;;;;;23.37;44.43;101683.34;6147106;23;20507;-65
2021/09/15 07:03:27;;;;;;;9.00;6.40;;;;;;;23.53;44.01;101688.44;6146733;23;20196;-65
2021/09/15 07:05:52;;;;;;;7.97;5.43;;;;;;;23.40;44.59;101687.25;6146378;23;20149;-65
2021/09/15 07:08:18;;;;;;;9.27;6.67;;;;;;;22.76;44.82;101608.25;6144948;23;20189;-66
2021/09/15 07:10:43;;;;;;;10.63;6.40;;;;;;;23.43;44.97;101692.69;6146599;23;20154;-65
2021/09/15 07:13:10;;;;;;;7.80;5.80;;;;;;;23.19;45.23;101648.94;6144679;23;20518;-65
2021/09/15 07:15:35;;;;;;;10.13;5.90;;;;;;;23.44;45.47;101685.75;6144872;23;20154;-65
2021/09/15 07:18:01;;;;;;;11.27;6.10;;;;;;;23.30;45.50;101694.31;6144747;23;20161;-65
2021/09/15 07:20:26;;;;;;;9.43;6.07;;;;;;;23.37;44.88;101691.84;6145620;23;20153;-65
2021/09/15 07:22:52;;;;;;;10.13;5.87;;;;;;;23.45;45.48;101690.16;6143631;23;20162;-65
2021/09/15 07:25:18;;;;;;;9.77;6.50;;;;;;;23.11;46.37;101664.72;6141788;23;20212;-65
2021/09/15 07:27:44;;;;;;;7.70;5.90;;;;;;;23.23;46.27;101697.56;6139023;23;20588;-65
2021/09/15 07:30:11;;;;;;;9.50;6.10;;;;;;;23.12;46.44;101689.69;6141420;23;20190;-65
2021/09/15 07:32:36;;;;;;;16.87;6.30;;;;;;;23.09;45.73;101653.13;6142726;23;20153;-65
2021/09/15 07:35:02;;;;;;;12.73;6.20;;;;;;;23.41;45.48;101691.63;6141227;23;20244;-65
2021/09/15 07:37:29;;;;;;;10.30;6.67;;;;;;;23.59;44.71;101700.59;6143082;23;20321;-65
2021/09/15 07:39:55;;;;;;;8.03;5.80;;;;;;;23.69;44.07;101695.56;6141570;23;20161;-65
2021/09/15 07:42:21;;;;;;;11.00;5.50;;;;;;;23.87;43.80;101695.25;6137727;23;20584;-65
2021/09/15 07:44:46;;;;;;;9.00;5.97;;;;;;;23.87;43.93;101675.44;6137894;23;20342;-64
2021/09/15 07:47:16;;;;;;;12.53;7.07;;;;;;;24.14;43.81;101692.72;6138778;23;20186;-66
2021/09/15 07:49:46;;;;;;;7.87;6.43;;;;;;;24.24;44.05;101694.09;6138388;23;20158;-66
2021/09/15 07:52:11;;;;;;;10.00;6.43;;;;;;;24.07;44.08;101686.72;6140236;23;20639;-66
2021/09/15 07:54:37;;;;;;;9.23;6.63;;;;;;;23.80;44.13;101650.41;6142505;23;20149;-66
2021/09/15 07:57:04;;;;;;;11.63;7.20;;;;;;;23.99;44.27;101685.63;6140930;23;20149;-66
2021/09/15 07:59:30;;;;;;;11.60;6.87;;;;;;;23.95;44.26;101697.16;6143791;23;20158;-66
2021/09/15 08:01:55;;;;;;;11.60;6.63;;;;;;;23.92;44.78;101698.19;6142851;23;20509;-66
2021/09/15 08:04:21;;;;;;;11.43;6.77;;;;;;;23.85;44.73;101695.75;6141684;23;20236;-66
2021/09/15 08:06:46;;;;;;;9.60;6.90;;;;;;;23.82;44.88;101695.97;6130486;23;20272;-64
2021/09/15 08:09:12;;;;;;;9.73;6.40;;;;;;;23.90;44.55;101691.47;6135861;23;20504;-65
2021/09/15 08:11:37;;;;;;;13.87;6.60;;;;;;;24.02;44.12;101693.13;6141162;23;20426;-62
2021/09/15 08:14:03;;;;;;;9.43;6.90;;;;;;;24.07;44.22;101664.06;6140604;23;20162;-66
2021/09/15 08:16:28;;;;;;;9.70;7.00;;;;;;;24.40;44.46;101684.19;6145821;23;20237;-66
2021/09/15 08:18:54;;;;;;;9.03;6.70;;;;;;;24.55;44.16;101696.16;6143287;23;20608;-66
2021/09/15 08:21:19;;;;;;;9.47;6.63;;;;;;;24.53;43.42;101671.19;6143715;23;20458;-65
2021/09/15 08:23:45;;;;;;;9.53;6.67;;;;;;;24.76;43.46;101692.75;6140058;23;20514;-66
2021/09/15 08:26:11;;;;;;;9.87;7.10;;;;;;;24.88;43.59;101699.28;6113859;23;20683;-66
2021/09/15 08:28:36;;;;;;;14.03;6.93;;;;;;;25.00;43.38;101689.53;6141884;23;20193;-66
2021/09/15 08:31:05;;;;;;;11.53;6.83;;;;;;;25.10;42.52;101688.06;6145318;23;20173;-71
2021/09/15 08:33:30;;;;;;;7.77;6.67;;;;;;;24.59;42.76;101603.22;6142118;23;20188;-68
2021/09/15 08:35:56;;;;;;;9.33;7.27;;;;;;;25.21;42.73;101688.09;6140425;23;20177;-67
2021/09/15 08:38:21;;;;;;;10.87;6.90;;;;;;;25.28;42.64;101679.91;6141121;23;20154;-67
2021/09/15 08:40:47;;;;;;;10.20;7.10;;;;;;;25.46;42.26;101684.38;6116028;23;20221;-67
2021/09/15 08:43:12;;;;;;;11.90;6.70;;;;;;;25.57;41.56;101684.41;6139940;23;20157;-66
2021/09/15 08:45:38;;;;;;;11.97;7.10;;;;;;;25.55;41.64;101676.44;6145564;23;20165;-66
2021/09/15 08:48:04;;;;;;;12.43;7.57;;;;;;;25.55;41.58;101662.25;6146612;23;20253;-66
2021/09/15 08:50:30;;;;;;;9.63;6.57;;;;;;;25.45;41.34;101632.53;6146887;23;20162;-66
2021/09/15 08:52:56;;;;;;;12.40;6.57;;;;;;;25.79;40.73;101676.75;6147623;23;20161;-66
2021/09/15 08:55:22;;;;;;;10.00;7.57;;;;;;;25.93;40.44;101678.63;6148702;23;20217;-66
2021/09/15 08:57:48;;;;;;;9.33;7.13;;;;;;;25.97;40.96;101672.69;6148641;23;20627;-67
2021/09/15 09:00:14;;;;;;;12.60;7.20;;;;;;;25.88;40.04;101635.97;6148511;23;20150;-68
2021/09/15 09:02:45;;;;;;;13.07;6.83;;;;;;;26.11;40.21;101661.06;6134882;23;20181;-70
2021/09/15 09:05:11;;;;;;;9.70;6.77;;;;;;;26.14;40.39;101657.19;6146592;23;20177;-69
2021/09/15 09:07:36;;;;;;;12.80;7.10;;;;;;;26.02;39.49;101623.63;6149750;23;20216;-67
2021/09/15 09:10:08;;;;;;;12.50;7.30;;;;;;;26.32;39.79;101668.06;6148967;23;20154;-66
2021/09/15 09:12:36;;;;;;;12.47;7.00;;;;;;;26.42;39.34;101665.72;6147491;23;20164;-67
2021/09/15 09:15:15;;;;;;;11.17;6.93;;;;;;;26.24;39.53;101632.94;6148472;23;20158;-70
2021/09/15 09:17:41;;;;;;;10.37;7.17;;;;;;;26.44;39.16;101643.25;6149882;23;20150;-67
2021/09/15 09:20:30;;;;;;;12.73;7.67;;;;;;;26.42;39.73;101663.69;6149232;23;20157;-64
2021/09/15 09:23:13;;;;;;;12.23;7.07;;;;;;;26.42;39.61;101645.84;6141720;23;20572;-62
2021/09/15 09:25:40;;;;;;;11.80;7.17;;;;;;;26.14;40.10;101613.81;6145416;23;20141;-59
2021/09/15 09:28:27;;;;;;;10.77;7.37;;;;;;;26.74;39.40;101638.56;6147142;23;20206;-64
2021/09/15 09:30:56;;;;;;;13.43;7.23;;;;;;;26.95;39.07;101631.28;6149599;23;20150;-64
2021/09/15 09:33:22;;;;;;;10.00;7.00;;;;;;;27.14;38.54;101630.19;6148034;23;20150;-64
2021/09/15 09:35:49;;;;;;;9.17;7.00;;;;;;;27.19;38.56;101632.25;6148303;23;20150;-64
2021/09/15 09:38:36;;;;;;;9.30;6.83;;;;;;;26.92;38.72;101626.66;6150436;23;20497;-64
2021/09/15 09:41:16;;;;;;;10.33;7.27;;;;;;;27.28;38.28;101622.66;6134983;23;20193;-64
2021/09/15 09:43:50;;;;;;;11.48;7.03;;;;;;;27.28;38.46;101588.50;6146356;23;20160;-64
2021/09/15 09:46:21;;;;;;;8.73;6.55;;;;;;;27.71;37.78;101618.00;6149795;23;20568;-60
2021/09/15 09:48:50;;;;;;;10.35;6.68;;;;;;;27.84;37.09;101615.34;6149781;23;20573;-62
2021/09/15 09:51:38;;;;;;;12.48;6.75;;;;;;;27.94;36.88;101623.03;6146207;23;20559;-62
2021/09/15 09:54:18;;;;;;;11.25;6.72;;;;;;;28.02;35.69;101603.28;6146762;23;20138;-63
2021/09/15 09:56:46;;;;;;;8.85;6.30;;;;;;;28.10;35.88;101612.81;6149102;23;20141;-62
2021/09/15 09:59:13;;;;;;;9.20;6.75;;;;;;;27.72;36.48;101608.13;6150648;23;20224;-62
2021/09/15 10:01:50;;;;;;;9.65;6.63;;;;;;;28.12;35.87;101604.50;6150745;23;20158;-62
2021/09/15 10:04:19;;;;;;;14.45;6.43;;;;;;;27.90;34.89;101551.31;6146737;23;20138;-62
2021/09/15 10:06:45;;;;;;;11.13;6.28;;;;;;;28.21;34.63;101601.31;6147906;23;20196;-63
2021/09/15 10:09:11;;;;;;;9.32;6.50;;;;;;;28.37;34.71;101597.53;6150145;23;20154;-62
2021/09/15 10:11:38;;;;;;;9.57;6.47;;;;;;;28.52;34.31;101589.38;6149430;23;20172;-63
2021/09/15 10:14:07;;;;;;;9.95;6.30;;;;;;;28.64;34.86;101593.66;6147699;23;20592;-64
2021/09/15 10:16:39;;;;;;;10.68;6.60;;;;;;;28.81;34.44;101592.16;6149393;23;20558;-62
2021/09/15 10:19:07;;;;;;;8.63;6.70;;;;;;;28.90;34.01;101594.66;6149567;23;20150;-63
2021/09/15 10:21:35;;;;;;;9.88;6.30;;;;;;;28.93;35.00;101587.09;6150217;23;20671;-62
2021/09/15 10:24:02;;;;;;;8.13;6.57;;;;;;;28.95;35.03;101593.03;6120054;23;20168;-63
2021/09/15 10:26:28;;;;;;;10.02;6.35;;;;;;;28.54;34.69;101581.84;6147312;23;20205;-66
2021/09/15 10:29:20;;;;;;;9.90;5.97;;;;;;;28.84;34.99;101578.88;6149073;23;20205;-61
2021/09/15 10:31:56;;;;;;;9.43;6.18;;;;;;;29.11;35.02;101581.44;6145216;23;20158;-61
2021/09/15 10:34:45;;;;;;;10.50;6.15;;;;;;;29.22;34.22;101587.00;6146718;23;20600;-60
2021/09/15 10:37:10;;;;;;;7.68;6.28;;;;;;;29.42;34.64;101577.13;6136976;23;20157;-61
2021/09/15 10:39:54;;;;;;;10.50;6.72;;;;;;;29.57;32.62;101578.22;6147890;23;20157;-61
2021/09/15 10:42:56;;;;;;;12.35;6.40;;;;;;;29.74;33.07;101570.16;6148036;23;20157;-61
2021/09/15 10:45:31;;;;;;;11.32;6.35;;;;;;;29.90;32.55;101571.22;6147771;23;20165;-60
2021/09/15 10:48:13;;;;;;;8.70;6.05;;;;;;;29.59;32.61;101507.03;6146462;23;20185;-63
2021/09/15 10:50:40;;;;;;;11.93;7.15;;;;;;;30.11;32.50;101563.59;6146422;23;20156;-62
2021/09/15 10:53:11;;;;;;;11.60;6.28;;;;;;;30.19;31.59;101556.69;6143945;23;20185;-60
2021/09/15 10:55:39;;;;;;;10.23;6.28;;;;;;;30.29;32.08;101551.31;6148500;23;20503;-61
2021/09/15 10:58:12;;;;;;;11.73;6.53;;;;;;;30.39;31.50;101556.06;6148721;23;20716;-63
2021/09/15 11:00:48;;;;;;;7.82;6.07;;;;;;;30.49;31.13;101550.66;6148382;23;20207;-63
2021/09/15 11:03:25;;;;;;;11.35;5.82;;;;;;;30.64;31.30;101545.94;6144703;23;20154;-62
2021/09/15 11:05:51;;;;;;;7.75;5.60;;;;;;;30.79;29.90;101540.47;6136492;23;20153;-62
2021/09/15 11:08:33;;;;;;;9.38;5.90;;;;;;;30.80;30.18;101512.59;6141411;23;20265;-63
2021/09/15 11:11:00;;;;;;;11.43;5.88;;;;;;;31.01;29.45;101528.53;6147143;23;20150;-64
2021/09/15 11:13:28;;;;;;;8.73;5.65;;;;;;;30.93;29.86;101519.09;6144628;23;20208;-64
2021/09/15 11:15:54;;;;;;;10.40;5.50;;;;;;;30.68;29.58;101480.59;6142616;23;20603;-63
2021/09/15 11:18:28;;;;;;;8.48;5.45;;;;;;;30.82;29.66;101479.25;6143978;23;20221;-61
2021/09/15 11:21:01;;;;;;;8.07;5.43;;;;;;;31.22;29.82;101508.59;6144637;23;20157;-60
2021/09/15 11:23:29;;;;;;;9.93;6.15;;;;;;;31.16;29.53;101474.31;6144539;23;20196;-61
2021/09/15 11:25:56;;;;;;;13.82;5.82;;;;;;;30.76;28.80;101429.19;6121105;23;20157;-67
2021/09/15 11:28:23;;;;;;;13.25;5.55;;;;;;;31.16;30.00;101500.09;6146805;23;20193;-67